createdAt,value
2023-04-16T00:01:46.184Z,8.54
2023-04-16T00:04:20.982Z,8.48
2023-04-16T00:06:56.671Z,8.44
2023-04-16T00:09:31.344Z,8.36
2023-04-16T00:12:06.502Z,8.35
2023-04-16T00:14:41.120Z,8.38
2023-04-16T00:17:15.644Z,8.41
2023-04-16T00:19:50.534Z,8.33
2023-04-16T00:22:26.303Z,8.32
2023-04-16T00:25:00.918Z,8.22
2023-04-16T00:27:35.150Z,8.09
2023-04-16T00:30:10.877Z,8.04
2023-04-16T00:32:45.227Z,7.94
2023-04-16T00:35:20.053Z,7.97
2023-04-16T00:37:55.843Z,8.04
2023-04-16T00:40:31.044Z,7.85
2023-04-16T00:43:05.549Z,7.71
2023-04-16T00:45:40.410Z,7.67
2023-04-16T00:48:14.981Z,7.66
2023-04-16T00:50:50.037Z,7.78
2023-04-16T00:53:26.025Z,7.80
2023-04-16T00:56:00.875Z,7.85
2023-04-16T00:58:36.114Z,8.02
2023-04-16T01:01:10.858Z,7.99
2023-04-16T01:03:46.536Z,7.93
2023-04-16T01:06:21.714Z,7.87
2023-04-16T01:08:57.841Z,7.88
2023-04-16T01:11:32.949Z,7.90
2023-04-16T01:14:07.317Z,7.99
2023-04-16T01:16:41.938Z,8.05
2023-04-16T01:19:16.435Z,8.05
2023-04-16T01:21:52.602Z,8.11
2023-04-16T01:24:26.911Z,7.87
2023-04-16T01:27:01.638Z,7.90
2023-04-16T01:29:36.244Z,8.01
2023-04-16T01:32:11.071Z,8.11
2023-04-16T01:34:45.585Z,8.13
2023-04-16T01:37:21.560Z,8.11
2023-04-16T01:39:55.905Z,7.98
2023-04-16T01:42:30.721Z,7.83
2023-04-16T01:45:05.892Z,7.83
2023-04-16T01:47:40.741Z,7.91
2023-04-16T01:50:15.585Z,8.12
2023-04-16T01:52:51.642Z,8.12
2023-04-16T01:55:27.015Z,8.05
2023-04-16T01:58:01.553Z,8.15
2023-04-16T02:00:36.868Z,8.29
2023-04-16T02:03:11.760Z,8.34
2023-04-16T02:05:47.502Z,8.15
2023-04-16T02:08:23.567Z,8.17
2023-04-16T02:10:58.464Z,8.23
2023-04-16T02:13:34.333Z,8.01
2023-04-16T02:16:09.142Z,7.98
2023-04-16T02:18:44.810Z,7.88
2023-04-16T02:21:20.364Z,7.86
2023-04-16T02:23:56.172Z,7.92
2023-04-16T02:26:31.234Z,7.86
2023-04-16T02:29:06.374Z,7.93
2023-04-16T02:31:41.861Z,7.95
2023-04-16T02:34:17.395Z,7.92
2023-04-16T02:36:51.993Z,7.82
2023-04-16T02:39:27.749Z,7.91
2023-04-16T02:42:02.930Z,7.82
2023-04-16T02:44:37.232Z,7.75
2023-04-16T02:47:11.891Z,7.81
2023-04-16T02:49:46.203Z,7.95
2023-04-16T02:52:20.906Z,7.91
2023-04-16T02:54:56.593Z,7.99
2023-04-16T02:57:31.251Z,7.79
2023-04-16T03:00:06.499Z,7.66
2023-04-16T03:02:42.646Z,7.66
2023-04-16T03:05:17.251Z,7.51
2023-04-16T03:07:56.781Z,7.42
2023-04-16T03:10:32.633Z,7.43
2023-04-16T03:13:07.371Z,7.28
2023-04-16T03:15:41.829Z,7.30
2023-04-16T03:18:16.480Z,7.35
2023-04-16T03:20:53.482Z,7.40
2023-04-16T03:23:28.360Z,7.39
2023-04-16T03:26:04.141Z,7.49
2023-04-16T03:28:38.851Z,7.54
2023-04-16T03:31:13.347Z,7.33
2023-04-16T03:33:48.126Z,7.39
2023-04-16T03:36:23.025Z,7.32
2023-04-16T03:38:57.770Z,7.39
2023-04-16T03:41:33.537Z,7.59
2023-04-16T03:44:08.237Z,7.66
2023-04-16T03:46:42.688Z,7.66
2023-04-16T03:49:17.787Z,7.63
2023-04-16T03:51:52.485Z,7.67
2023-04-16T03:54:27.137Z,7.59
2023-04-16T03:57:04.260Z,7.55
2023-04-16T03:59:39.371Z,7.48
2023-04-16T04:02:13.963Z,7.32
2023-04-16T04:04:49.887Z,7.35
2023-04-16T04:07:24.899Z,7.54
2023-04-16T04:09:59.827Z,7.60
2023-04-16T04:12:35.452Z,7.55
2023-04-16T04:15:11.118Z,7.68
2023-04-16T04:17:45.539Z,7.70
2023-04-16T04:20:20.196Z,7.80
2023-04-16T04:22:54.791Z,7.75
2023-04-16T04:25:29.844Z,7.78
2023-04-16T04:28:08.290Z,7.68
2023-04-16T04:30:43.277Z,7.78
2023-04-16T04:33:18.173Z,7.82
2023-04-16T04:35:53.047Z,7.75
2023-04-16T04:38:27.525Z,7.82
2023-04-16T04:41:02.324Z,7.90
2023-04-16T04:43:39.208Z,7.87
2023-04-16T04:46:14.017Z,7.85
2023-04-16T04:48:48.415Z,7.80
2023-04-16T04:51:23.824Z,7.77
2023-04-16T04:53:58.159Z,7.87
2023-04-16T04:56:32.908Z,8.07
2023-04-16T04:59:11.084Z,8.15
2023-04-16T05:01:46.775Z,8.14
2023-04-16T05:04:21.200Z,8.19
2023-04-16T05:06:56.580Z,8.17
2023-04-16T05:09:30.932Z,8.14
2023-04-16T05:12:05.665Z,8.04
2023-04-16T05:14:41.352Z,8.09
2023-04-16T05:17:15.920Z,7.89
2023-04-16T05:19:50.296Z,7.73
2023-04-16T05:22:25.108Z,7.98
2023-04-16T05:24:59.570Z,8.13
2023-04-16T05:27:34.174Z,8.19
2023-04-16T05:30:11.500Z,8.23
2023-04-16T05:32:46.241Z,8.29
2023-04-16T05:35:20.771Z,8.25
2023-04-16T05:37:55.688Z,8.38
2023-04-16T05:40:30.399Z,8.16
2023-04-16T05:43:05.074Z,8.11
2023-04-16T05:45:41.535Z,8.19
2023-04-16T05:48:16.119Z,8.46
2023-04-16T05:50:50.955Z,8.36
2023-04-16T05:53:25.555Z,8.35
2023-04-16T05:55:59.850Z,8.36
2023-04-16T05:58:34.524Z,8.50
2023-04-16T06:02:55.075Z,8.51
2023-04-16T06:05:30.750Z,8.29
2023-04-16T06:08:05.101Z,8.57
2023-04-16T06:10:39.770Z,8.54
2023-04-16T06:13:14.026Z,8.47
2023-04-16T06:15:48.746Z,8.51
2023-04-16T06:18:24.535Z,8.57
2023-04-16T06:21:00.050Z,8.83
2023-04-16T06:23:34.430Z,8.81
2023-04-16T06:26:09.078Z,8.75
2023-04-16T06:28:43.423Z,8.84
2023-04-16T06:31:18.125Z,8.72
2023-04-16T06:33:53.995Z,8.78
2023-04-16T06:36:29.211Z,8.95
2023-04-16T06:39:03.570Z,8.93
2023-04-16T06:41:38.271Z,8.96
2023-04-16T06:44:12.549Z,8.88
2023-04-16T06:46:47.228Z,9.07
2023-04-16T06:49:23.166Z,9.13
2023-04-16T06:51:58.881Z,9.23
2023-04-16T06:54:33.492Z,9.24
2023-04-16T06:57:08.085Z,9.26
2023-04-16T06:59:42.906Z,9.41
2023-04-16T07:02:17.600Z,9.21
2023-04-16T07:04:53.701Z,9.16
2023-04-16T07:07:28.455Z,9.11
2023-04-16T07:10:02.816Z,9.17
2023-04-16T07:12:37.829Z,9.44
2023-04-16T07:15:12.754Z,9.33
2023-04-16T07:17:47.379Z,9.42
2023-04-16T07:20:23.046Z,9.44
2023-04-16T07:22:59.613Z,9.68
2023-04-16T07:25:34.158Z,9.65
2023-04-16T07:28:09.409Z,9.43
2023-04-16T14:02:56.251Z,16.39
2023-04-16T14:05:31.472Z,16.39
2023-04-16T14:08:05.897Z,15.79
2023-04-16T14:10:40.805Z,15.69
2023-04-16T14:13:15.576Z,15.71
2023-04-16T14:15:50.832Z,15.68
2023-04-16T14:18:26.511Z,15.65
2023-04-16T14:21:02.330Z,15.58
2023-04-16T14:23:37.161Z,15.63
2023-04-16T14:26:12.081Z,15.36
2023-04-16T14:28:47.302Z,15.39
2023-04-16T14:31:22.016Z,15.23
2023-04-16T14:33:57.741Z,15.09
2023-04-16T14:36:32.615Z,15.13
2023-04-16T14:39:07.267Z,15.02
2023-04-16T14:41:42.125Z,15.09
2023-04-16T14:44:17.183Z,15.14
2023-04-16T14:46:51.921Z,15.18
2023-04-16T14:49:27.958Z,15.25
2023-04-16T14:52:05.416Z,15.11
2023-04-16T14:54:40.008Z,15.30
2023-04-16T14:57:14.718Z,15.24
2023-04-16T14:59:49.590Z,15.23
2023-04-16T15:02:24.547Z,15.37
2023-04-16T15:05:01.548Z,15.36
2023-04-16T15:07:36.187Z,15.43
2023-04-16T15:10:12.725Z,15.40
2023-04-16T15:12:47.474Z,15.39
2023-04-16T15:15:22.059Z,15.43
2023-04-16T15:17:57.832Z,15.44
2023-04-16T15:20:33.900Z,15.34
2023-04-16T15:23:09.027Z,15.32
2023-04-16T15:25:43.365Z,15.25
2023-04-16T15:28:18.242Z,15.15
2023-04-16T15:30:55.850Z,15.17
2023-04-16T15:33:34.402Z,15.11
2023-04-16T15:36:11.476Z,15.11
2023-04-16T15:38:46.291Z,14.96
2023-04-16T15:41:23.348Z,15.04
2023-04-16T15:43:58.093Z,14.92
2023-04-16T15:46:32.417Z,14.93
2023-04-16T15:49:07.766Z,14.78
2023-04-16T15:51:44.049Z,14.79
2023-04-16T15:54:20.530Z,14.94
2023-04-16T15:57:01.194Z,15.63
2023-04-16T15:59:38.925Z,15.67
2023-04-16T16:02:17.856Z,15.50
2023-04-16T16:04:52.563Z,15.00
2023-04-16T16:07:33.590Z,14.77
2023-04-16T16:10:10.200Z,14.70
2023-04-16T16:12:48.316Z,14.81
2023-04-16T16:15:24.588Z,14.79
2023-04-16T16:17:59.327Z,14.52
2023-04-16T16:20:34.583Z,14.40
2023-04-16T16:23:12.085Z,14.41
2023-04-16T16:25:51.611Z,14.34
2023-04-16T16:28:26.781Z,14.45
2023-04-16T16:31:02.153Z,14.33
2023-04-16T16:33:40.749Z,14.39
2023-04-16T16:36:15.995Z,14.22
2023-04-16T16:38:51.797Z,14.41
2023-04-16T16:41:26.928Z,15.07
2023-04-16T16:44:01.658Z,15.72
2023-04-16T16:46:36.718Z,15.26
2023-04-16T16:49:11.633Z,14.64
2023-04-16T16:51:47.008Z,14.43
2023-04-16T16:54:22.971Z,14.06
2023-04-16T16:56:57.729Z,14.13
2023-04-16T16:59:32.373Z,14.00
2023-04-16T17:02:08.207Z,13.76
2023-04-16T17:04:43.007Z,13.83
2023-04-16T17:07:17.709Z,13.80
2023-04-16T17:09:53.741Z,13.51
2023-04-16T17:12:28.879Z,13.55
2023-04-16T17:15:03.882Z,13.48
2023-04-16T17:17:38.963Z,13.25
2023-04-16T17:20:14.403Z,13.35
2023-04-16T17:22:49.348Z,13.27
2023-04-16T17:25:25.089Z,13.25
2023-04-16T17:28:00.154Z,13.11
2023-04-16T17:30:34.919Z,13.21
2023-04-16T17:33:10.260Z,13.03
2023-04-16T17:35:44.912Z,12.88
2023-04-16T17:38:19.500Z,12.97
2023-04-16T17:40:57.147Z,12.86
2023-04-16T17:43:32.196Z,12.76
2023-04-16T17:46:06.740Z,12.76
2023-04-16T17:48:41.770Z,12.58
2023-04-16T17:51:16.749Z,12.71
2023-04-16T17:53:52.021Z,12.64
2023-04-16T17:56:27.982Z,12.63
2023-04-16T17:59:02.971Z,12.60
2023-04-16T18:01:38.769Z,12.40
2023-04-16T18:04:13.771Z,12.46
2023-04-16T18:06:48.746Z,12.42
2023-04-16T18:09:24.170Z,12.40
2023-04-16T18:12:00.018Z,12.44
2023-04-16T18:14:35.993Z,12.46
2023-04-16T18:17:10.566Z,12.29
2023-04-16T18:19:45.614Z,12.31
2023-04-16T18:22:19.931Z,12.39
2023-04-16T18:24:54.823Z,12.24
2023-04-16T18:27:30.506Z,12.31
2023-04-16T18:30:06.507Z,12.18
2023-04-16T18:32:59.862Z,12.22
2023-04-16T18:35:36.303Z,12.29
2023-04-16T18:38:11.165Z,12.20
2023-04-16T18:40:47.097Z,12.10
2023-04-16T18:43:23.909Z,12.22
2023-04-16T18:45:58.819Z,12.11
2023-04-16T18:48:33.452Z,12.03
2023-04-16T18:51:09.188Z,12.02
2023-04-16T18:53:44.494Z,12.12
2023-04-16T18:56:20.044Z,12.20
2023-04-16T18:58:56.102Z,12.17
2023-04-16T19:01:31.209Z,12.19
2023-04-16T19:04:05.984Z,12.07
2023-04-16T19:06:41.164Z,12.14
2023-04-16T19:09:17.054Z,12.16
2023-04-16T19:11:52.321Z,12.14
2023-04-16T19:14:28.570Z,11.89
2023-04-16T19:17:03.149Z,11.84
2023-04-16T19:19:37.714Z,12.05
2023-04-16T19:22:12.920Z,11.98
2023-04-16T19:24:47.450Z,13.69
2023-04-16T19:27:22.600Z,13.87
2023-04-16T19:29:58.641Z,12.88
2023-04-16T19:32:33.913Z,12.64
2023-04-16T19:35:09.713Z,12.25
2023-04-16T19:37:44.714Z,12.29
2023-04-16T19:40:19.929Z,11.86
2023-04-16T19:42:55.151Z,11.83
2023-04-16T19:45:31.451Z,11.92
2023-04-16T19:48:06.988Z,12.00
2023-04-16T19:50:42.083Z,11.55
2023-04-16T19:53:17.324Z,11.67
2023-04-16T19:55:51.683Z,11.81
2023-04-16T19:58:31.826Z,12.67
2023-04-16T20:01:11.404Z,12.60
2023-04-16T20:03:46.463Z,12.22
2023-04-16T20:06:21.614Z,11.86
2023-04-16T20:08:57.953Z,12.62
2023-04-16T20:11:32.246Z,12.04
2023-04-16T20:14:07.483Z,11.86
2023-04-16T20:16:43.784Z,11.59
2023-04-16T20:19:19.710Z,11.74
2023-04-16T20:21:53.986Z,11.53
2023-04-16T20:24:31.142Z,11.57
2023-04-16T20:27:05.627Z,11.46
2023-04-16T20:29:40.411Z,11.44
2023-04-16T20:32:16.137Z,11.39
2023-04-16T20:34:50.708Z,11.26
2023-04-16T20:37:25.012Z,11.42
2023-04-16T20:39:59.721Z,11.45
2023-04-16T20:42:35.302Z,11.53
2023-04-16T20:45:11.313Z,11.31
2023-04-16T20:47:47.396Z,11.81
2023-04-16T20:50:22.084Z,12.92
2023-04-16T20:52:56.731Z,12.90
2023-04-16T20:55:31.394Z,12.17
2023-04-16T20:58:05.868Z,11.74
2023-04-16T21:00:40.844Z,11.74
2023-04-16T21:03:16.819Z,11.48
2023-04-16T21:05:53.342Z,11.43
2023-04-16T21:08:28.168Z,11.27
2023-04-16T21:11:02.853Z,11.24
2023-04-16T21:13:37.136Z,11.32
2023-04-16T21:16:12.586Z,11.39
2023-04-16T21:18:48.410Z,11.27
2023-04-16T21:21:23.093Z,11.19
2023-04-16T21:23:57.499Z,11.09
2023-04-16T21:26:32.148Z,11.14
2023-04-16T21:29:06.494Z,11.14
2023-04-16T21:31:41.281Z,11.08
2023-04-16T21:34:16.973Z,11.05
2023-04-16T21:36:51.584Z,10.97
2023-04-16T21:39:31.005Z,10.83
2023-04-16T21:42:05.786Z,10.95
2023-04-16T21:44:40.047Z,10.71
2023-04-16T21:47:14.912Z,10.81
2023-04-16T21:49:50.764Z,10.82
2023-04-16T21:52:25.529Z,10.72
2023-04-16T21:55:00.499Z,10.76
2023-04-16T21:57:35.106Z,10.69
2023-04-16T22:03:00.179Z,11.21
2023-04-16T22:05:36.014Z,11.21
2023-04-16T22:08:23.511Z,10.87
2023-04-16T22:11:00.294Z,10.84
2023-04-16T22:13:36.756Z,10.66
2023-04-16T22:16:11.869Z,10.73
2023-04-16T22:18:48.571Z,10.77
2023-04-16T22:21:23.213Z,10.66
2023-04-16T22:23:57.510Z,10.59
2023-04-16T22:26:32.115Z,10.71
2023-04-16T22:29:06.669Z,10.61
2023-04-16T22:31:41.490Z,10.66
2023-04-16T22:34:17.178Z,10.55
